Time;durP1;ratioP1;P1;durP2;ratioP2;P2;SDS_P1;SDS_P2;PMS_P1;PMS_P2;Temp;Humidity;BMP_temperature;BMP_pressure;BME280_temperature;BME280_humidity;BME280_pressure;Samples;Min_cycle;Max_cycle;Signal;HPM_P1;HPM_P2
2022/05/28 00:01:20;;;;;;;3.33;1.80;;;14.30;81.30;;;13.27;88.12;96266.28;4913595;29;20089;-68
2022/05/28 00:03:47;;;;;;;4.45;2.08;;;14.20;81.30;;;13.24;88.32;96271.97;4922706;28;20497;-68
2022/05/28 00:06:17;;;;;;;3.13;2.20;;;14.20;81.50;;;13.25;88.44;96268.31;4950504;28;20077;-68
2022/05/28 00:08:43;;;;;;;;;;;14.20;81.30;;;13.24;90.52;96261.41;4930691;28;20071;-66
2022/05/28 00:11:14;;;;;;;3.22;2.15;;;14.40;81.10;;;13.21;88.18;96269.72;4945793;28;20271;-69
2022/05/28 00:13:40;;;;;;;;;;;14.20;81.30;;;13.20;90.60;96276.03;4925366;28;20047;-68
2022/05/28 00:16:06;;;;;;;2.70;2.08;;;14.20;81.40;;;13.20;87.90;96273.38;4945618;28;19922;-68
2022/05/28 00:18:31;;;;;;;2.97;2.10;;;14.20;81.50;;;13.22;89.16;96263.44;4932353;29;20035;-69
2022/05/28 00:20:57;;;;;;;3.08;2.20;;;14.30;81.70;;;13.24;88.62;96266.69;4929115;28;20043;-68
2022/05/28 00:23:23;;;;;;;2.78;2.15;;;14.20;81.50;;;13.25;88.87;96263.03;4915989;29;20047;-69
2022/05/28 00:25:49;;;;;;;3.28;2.10;;;14.40;81.70;;;13.27;89.77;96261.00;4940920;28;20097;-68
2022/05/28 00:28:15;;;;;;;3.38;1.85;;;14.30;81.50;;;13.31;88.97;96266.69;4929374;29;20404;-68
2022/05/28 00:30:41;;;;;;;2.83;2.20;;;14.40;81.40;;;13.32;89.77;96266.47;4945153;28;20051;-71
2022/05/28 00:33:07;;;;;;;3.30;2.08;;;14.40;81.50;;;13.36;88.99;96265.09;4930954;28;20098;-68
2022/05/28 00:35:32;;;;;;;3.50;1.63;;;14.60;81.50;;;13.42;90.40;96266.09;4947465;28;20059;-69
2022/05/28 00:37:58;;;;;;;2.08;1.60;;;14.60;81.50;;;13.45;90.54;96269.16;4931858;28;20069;-69
2022/05/28 00:40:25;;;;;;;2.13;1.77;;;14.70;81.20;;;13.48;90.12;96260.00;4932737;28;20545;-68
2022/05/28 00:42:51;;;;;;;3.45;2.20;;;14.70;81.10;;;13.48;89.27;96255.53;4931296;28;20035;-69
2022/05/28 00:45:18;;;;;;;2.00;1.80;;;14.60;80.60;;;13.49;89.57;96249.22;4931318;29;20050;-68
2022/05/28 00:47:47;;;;;;;2.67;1.75;;;14.60;80.90;;;13.53;89.38;96248.81;4927842;28;20059;-68
2022/05/28 00:50:13;;;;;;;2.45;1.90;;;14.70;80.50;;;13.56;89.16;96248.41;4911422;29;20079;-69
2022/05/28 00:52:40;;;;;;;2.47;2.05;;;14.70;80.60;;;13.54;88.88;96245.16;4913610;28;20505;-67
2022/05/28 00:55:06;;;;;;;4.45;1.70;;;14.60;80.40;;;13.52;89.60;96241.91;4932782;28;20054;-68
2022/05/28 00:57:32;;;;;;;5.07;1.95;;;14.60;80.40;;;13.53;89.48;96246.97;4946869;28;20039;-68
2022/05/28 00:59:58;;;;;;;3.00;1.77;;;14.70;80.60;;;13.52;88.97;96249.84;4924964;28;20050;-68
2022/05/28 01:02:43;;;;;;;2.70;1.70;;;14.70;80.60;;;13.54;90.56;96231.94;4929313;29;20082;-70
2022/05/28 01:05:26;;;;;;;2.25;1.80;;;14.80;80.50;;;13.55;88.65;96249.41;4947103;28;20039;-68
2022/05/28 01:08:32;;;;;;;3.13;1.83;;;14.70;80.10;;;13.55;89.41;96244.13;4945768;28;20120;-67
2022/05/28 01:11:47;;;;;;;4.65;1.83;;;14.70;79.90;;;13.56;89.18;96238.66;4927303;28;20435;-69
2022/05/28 01:14:24;;;;;;;2.53;1.90;;;14.80;79.80;;;13.57;88.75;96247.38;4875282;29;20042;-67
2022/05/28 01:16:53;;;;;;;2.50;1.90;;;14.80;79.30;;;13.59;87.68;96242.72;4935903;28;20031;-68
2022/05/28 01:20:02;;;;;;;2.60;2.20;;;14.80;79.10;;;13.60;88.40;96239.06;4946629;28;20042;-68
2022/05/28 01:23:00;;;;;;;2.53;2.03;;;14.70;78.90;;;13.59;87.75;96238.25;4941844;28;20109;-68
2022/05/28 01:26:15;;;;;;;3.33;2.10;;;14.80;79.30;;;13.59;88.06;96227.69;4930479;28;20508;-69
2022/05/28 01:28:44;;;;;;;4.72;2.15;;;14.80;79.00;;;13.55;86.66;96231.72;4930322;28;20767;-68
2022/05/28 01:31:11;;;;;;;5.07;2.17;;;14.70;78.70;;;13.53;86.99;96235.59;4915311;29;20127;-69
2022/05/28 01:33:37;;;;;;;2.58;1.88;;;14.60;78.20;;;13.51;86.96;96229.72;4928680;28;20041;-70
2022/05/28 01:36:07;;;;;;;2.13;1.75;;;14.70;78.40;;;13.49;85.81;96236.00;4947210;28;20035;-69
2022/05/28 01:38:33;;;;;;;3.67;1.80;;;14.70;78.40;;;13.49;86.56;96235.19;4930540;28;20600;-69
2022/05/28 01:40:59;;;;;;;2.50;1.83;;;14.60;78.30;;;13.48;86.09;96233.56;4908475;28;20719;-70
2022/05/28 01:43:25;;;;;;;2.88;2.15;;;14.60;78.30;;;13.43;86.03;96239.47;4914906;29;20122;-68
2022/05/28 01:45:51;;;;;;;3.17;2.17;;;14.60;78.10;;;13.40;85.81;96234.59;4915165;28;20477;-69
2022/05/28 01:48:17;;;;;;;3.25;2.00;;;14.60;78.10;;;13.38;86.29;96234.00;4927291;29;20530;-68
2022/05/28 01:50:45;;;;;;;3.05;1.92;;;14.50;78.00;;;13.35;85.39;96229.13;4905611;29;20533;-69
2022/05/28 01:54:06;;;;;;;2.88;2.00;;;14.50;78.60;;;13.32;85.66;96234.78;4926962;28;20102;-68
2022/05/28 01:55:59;;;;;;;2.25;1.92;;;14.40;78.40;;;13.28;86.51;96236.19;4928445;29;20746;-68
2022/05/28 01:58:24;;;;;;;3.92;2.00;;;14.40;78.50;;;13.24;85.43;96235.00;4923286;29;20036;-69
2022/05/28 02:00:50;;;;;;;3.85;2.20;;;14.40;78.80;;;13.23;85.60;96237.84;4944267;28;20035;-70
2022/05/28 02:03:16;;;;;;;2.13;1.88;;;14.40;78.70;;;13.21;86.64;96239.88;4929232;29;20077;-68
2022/05/28 02:05:42;;;;;;;3.65;2.13;;;14.40;78.70;;;13.19;86.04;96234.78;4930831;29;20052;-69
2022/05/28 02:08:07;;;;;;;3.17;2.08;;;14.40;78.70;;;13.20;86.42;96230.31;4935455;28;20210;-67
2022/05/28 02:10:33;;;;;;;3.33;2.03;;;14.40;78.90;;;13.20;87.01;96239.06;4924697;29;20414;-69
2022/05/28 02:13:11;;;;;;;3.60;2.03;;;14.40;78.60;;;13.22;86.71;96233.56;4929234;28;20376;-68
2022/05/28 02:15:52;;;;;;;3.58;2.00;;;14.50;78.60;;;13.23;87.00;96233.38;4925876;29;20031;-69
2022/05/28 02:18:49;;;;;;;3.55;1.80;;;14.50;78.30;;;13.23;86.78;96233.38;4943451;28;20063;-68
2022/05/28 02:21:21;;;;;;;2.35;1.85;;;14.40;78.10;;;13.17;85.73;96235.00;4930345;28;20063;-69
2022/05/28 02:23:56;;;;;;;3.90;2.30;;;14.40;78.00;;;13.20;86.67;96236.41;4926972;29;20078;-68
2022/05/28 02:26:41;;;;;;;3.45;2.15;;;14.40;78.00;;;13.20;86.09;96227.69;4913709;29;20038;-69
2022/05/28 02:29:07;;;;;;;4.03;2.38;;;14.40;77.90;;;13.17;86.19;96229.72;4910867;28;20113;-68
2022/05/28 02:31:33;;;;;;;4.30;2.33;;;14.40;78.10;;;13.17;86.39;96226.22;4922084;29;20560;-69
2022/05/28 02:33:59;;;;;;;3.17;2.60;;;14.30;78.20;;;13.18;85.17;96222.59;4910756;29;20194;-69
2022/05/28 02:36:25;;;;;;;2.95;2.30;;;14.40;77.70;;;13.18;85.97;96227.88;4929831;29;20032;-71
2022/05/28 02:38:51;;;;;;;2.75;2.20;;;14.40;77.60;;;13.16;85.75;96222.78;4892812;28;20043;-69
2022/05/28 02:41:17;;;;;;;3.45;2.17;;;14.40;77.90;;;13.16;84.79;96212.19;4899549;29;20190;-69
2022/05/28 02:43:43;;;;;;;4.93;2.50;;;14.40;77.40;;;13.15;84.61;96215.88;4930301;29;20058;-69
2022/05/28 02:46:09;;;;;;;2.47;2.13;;;14.30;76.80;;;13.13;84.40;96214.44;4941638;28;20518;-69
2022/05/28 02:48:35;;;;;;;4.32;2.03;;;14.30;77.00;;;13.13;84.19;96211.81;4941038;28;20035;-68
2022/05/28 02:51:13;;;;;;;4.03;2.55;;;14.30;77.10;;;13.12;84.25;96213.59;4942461;28;20027;-69
2022/05/28 02:53:38;;;;;;;5.22;2.40;;;14.40;76.90;;;13.09;85.49;96207.91;4925045;28;20463;-70
2022/05/28 02:56:05;;;;;;;2.83;2.50;;;14.40;77.70;;;13.09;85.02;96205.28;4908469;29;20043;-69
2022/05/28 02:58:30;;;;;;;6.68;2.53;;;14.30;78.00;;;13.10;85.43;96218.28;4926075;29;20032;-69
2022/05/28 03:00:56;;;;;;;4.03;2.60;;;14.40;78.20;;;13.13;84.93;96214.44;4959350;28;20169;-68
2022/05/28 03:03:22;;;;;;;4.68;2.53;;;14.40;77.50;;;13.13;85.40;96217.91;4924420;29;20570;-68
2022/05/28 03:05:49;;;;;;;4.82;2.70;;;14.40;77.40;;;13.14;84.79;96218.72;4931593;29;20581;-69
2022/05/28 03:08:15;;;;;;;3.88;2.58;;;14.40;77.40;;;13.13;85.92;96217.09;4933302;28;20031;-69
2022/05/28 03:10:41;;;;;;;3.53;2.50;;;14.40;77.70;;;13.11;85.60;96216.44;4927678;29;20062;-68
2022/05/28 03:13:06;;;;;;;4.10;2.60;;;14.40;77.30;;;13.09;86.13;96216.66;4942579;28;20128;-68
2022/05/28 03:15:33;;;;;;;4.55;2.50;;;14.30;77.80;;;13.10;85.46;96222.75;4923646;29;20126;-69
2022/05/28 03:17:59;;;;;;;3.97;2.67;;;14.30;77.40;;;13.05;83.56;96225.19;4929855;29;20039;-68
2022/05/28 03:20:26;;;;;;;4.45;2.80;;;14.10;75.80;;;13.03;84.20;96216.66;4927359;29;20032;-69
2022/05/28 03:22:52;;;;;;;5.68;2.58;;;14.20;76.50;;;13.01;83.69;96216.03;4910696;28;20039;-70
2022/05/28 03:25:18;;;;;;;5.80;2.80;;;14.20;76.60;;;13.01;84.25;96223.97;4918507;29;20388;-73
2022/05/28 03:27:44;;;;;;;6.30;2.60;;;14.20;76.10;;;13.01;82.93;96232.69;4938736;29;20031;-67
2022/05/28 03:30:10;;;;;;;8.57;4.13;;;14.20;75.50;;;13.02;83.01;96222.94;4960568;28;20039;-71
2022/05/28 03:32:36;;;;;;;12.10;8.55;;;14.20;75.20;;;13.02;82.20;96231.69;4928737;29;20066;-75
2022/05/28 03:35:02;;;;;;;8.35;3.88;;;14.20;74.40;;;13.00;81.73;96239.00;4930841;28;20070;-72
2022/05/28 03:37:28;;;;;;;10.23;3.60;;;14.20;74.10;;;12.98;81.54;96240.22;4932256;29;20178;-76
2022/05/28 03:39:53;;;;;;;8.43;3.83;;;14.10;74.00;;;12.96;81.72;96231.69;4917615;29;20075;-74
2022/05/28 03:42:19;;;;;;;7.13;3.95;;;14.20;74.90;;;12.96;81.89;96221.13;4948658;28;20126;-70
2022/05/28 03:44:45;;;;;;;8.15;4.07;;;14.20;74.70;;;12.94;80.66;96242.44;4937577;29;20457;-68
2022/05/28 03:47:11;;;;;;;8.13;4.78;;;14.10;74.00;;;12.93;80.47;96247.91;4934510;29;20471;-69
2022/05/28 03:49:38;;;;;;;9.18;5.88;;;14.10;74.10;;;12.91;80.72;96250.75;4918625;29;20519;-70
2022/05/28 03:52:05;;;;;;;9.18;6.38;;;14.10;73.30;;;12.91;80.08;96244.66;4933359;29;20039;-71
2022/05/28 03:54:30;;;;;;;11.52;6.65;;;14.20;73.00;;;12.87;78.86;96250.31;4930324;29;20106;-70
2022/05/28 03:57:07;;;;;;;9.00;5.57;;;14.10;71.70;;;12.88;77.94;96249.31;4932607;28;20062;-70
2022/05/28 03:59:34;;;;;;;8.45;4.28;;;14.10;71.40;;;12.85;78.29;96256.81;4945953;28;20055;-70
2022/05/28 04:02:03;;;;;;;8.93;5.10;;;14.10;70.60;;;12.82;77.23;96247.47;4949095;29;20130;-70
2022/05/28 04:04:29;;;;;;;5.45;2.75;;;14.00;71.10;;;12.80;76.92;96259.25;4934125;28;20042;-70
2022/05/28 04:06:54;;;;;;;7.57;2.63;;;13.90;70.20;;;12.79;75.47;96268.19;4946920;28;20135;-69
2022/05/28 04:09:20;;;;;;;8.77;2.83;;;13.90;69.10;;;12.76;75.75;96266.75;4950042;29;20035;-70
2022/05/28 04:11:46;;;;;;;9.38;3.15;;;14.00;69.80;;;12.69;74.92;96271.19;4933591;29;20074;-70
2022/05/28 04:14:11;;;;;;;7.05;3.33;;;13.60;68.60;;;12.62;74.87;96267.69;4965379;28;20085;-69
2022/05/28 04:16:37;;;;;;;10.30;3.55;;;13.70;68.90;;;12.55;74.08;96272.97;4929828;29;20066;-71
2022/05/28 04:19:03;;;;;;;10.02;3.28;;;13.60;69.30;;;12.49;74.54;96273.75;4932209;28;20789;-69
2022/05/28 04:21:29;;;;;;;9.95;3.63;;;13.50;68.90;;;12.45;73.88;96269.06;4918383;29;20031;-71
2022/05/28 04:23:55;;;;;;;8.50;4.32;;;13.50;68.60;;;12.41;73.85;96271.25;4932522;29;20044;-72
2022/05/28 04:26:20;;;;;;;9.43;3.03;;;13.60;68.90;;;12.40;73.78;96274.09;4935349;29;20035;-72
2022/05/28 04:28:46;;;;;;;11.70;2.70;;;13.60;68.90;;;12.37;73.56;96270.03;4919094;28;20134;-69
2022/05/28 04:31:12;;;;;;;6.93;2.15;;;13.60;68.30;;;12.31;73.17;96270.00;4949559;29;20090;-69
2022/05/28 04:33:38;;;;;;;5.50;2.13;;;13.40;67.70;;;12.22;72.42;96267.53;4918600;28;20051;-68
2022/05/28 04:36:03;;;;;;;5.88;2.15;;;13.20;67.10;;;12.18;72.75;96268.09;4934389;29;20090;-69
2022/05/28 04:38:29;;;;;;;4.72;2.10;;;13.30;67.80;;;12.09;71.74;96270.09;4919603;29;20126;-71
2022/05/28 04:40:55;;;;;;;5.32;2.15;;;13.10;66.80;;;12.05;72.21;96278.59;4935049;28;20070;-70
2022/05/28 04:43:21;;;;;;;9.10;2.47;;;13.20;66.70;;;12.04;71.69;96272.50;4934991;28;20039;-71
2022/05/28 04:45:46;;;;;;;6.25;2.33;;;13.20;66.80;;;12.05;71.79;96279.41;4935355;29;20039;-70
2022/05/28 04:48:12;;;;;;;4.85;2.20;;;13.20;67.60;;;12.03;72.66;96276.16;4919593;29;20039;-69
2022/05/28 04:50:38;;;;;;;6.20;2.47;;;13.20;68.00;;;11.99;72.91;96272.25;4935098;29;20095;-69
2022/05/28 04:53:04;;;;;;;11.45;5.40;;;13.20;68.70;;;11.98;72.59;96275.88;4933611;28;20027;-70
2022/05/28 04:55:30;;;;;;;13.23;6.80;;;13.20;68.10;;;11.98;73.17;96278.53;4951538;29;20135;-70
2022/05/28 04:57:56;;;;;;;6.28;3.17;;;13.20;68.70;;;11.94;72.95;96272.84;4967342;28;20042;-70
2022/05/28 05:00:24;;;;;;;6.20;2.38;;;13.20;68.30;;;11.96;73.03;96277.91;4935305;29;20519;-71
2022/05/28 05:02:50;;;;;;;5.93;2.55;;;13.40;68.50;;;11.99;73.34;96279.34;4946661;28;20032;-69
2022/05/28 05:05:16;;;;;;;7.82;2.28;;;13.40;68.60;;;11.97;73.22;96279.53;4948426;29;20041;-70
2022/05/28 05:07:42;;;;;;;7.25;2.20;;;13.30;68.40;;;11.98;73.58;96285.63;4932244;29;20032;-71
2022/05/28 05:10:09;;;;;;;6.22;2.20;;;13.30;68.90;;;11.97;73.02;96284.81;4950889;29;20070;-69
2022/05/28 05:12:34;;;;;;;11.40;7.18;;;13.30;68.90;;;11.94;74.09;96291.28;4919443;29;20035;-71
2022/05/28 05:15:00;;;;;;;18.10;12.95;;;13.30;69.00;;;11.96;73.63;96289.28;4936009;28;20031;-70
2022/05/28 05:17:26;;;;;;;14.95;8.02;;;13.30;68.60;;;11.96;72.53;96288.44;4936175;29;20035;-69
2022/05/28 05:19:53;;;;;;;13.52;6.45;;;13.20;67.70;;;11.99;73.37;96279.34;4931467;29;20040;-70
2022/05/28 05:22:18;;;;;;;7.65;2.95;;;13.30;67.40;;;12.02;72.66;96282.44;4933307;29;20087;-71
2022/05/28 05:24:44;;;;;;;10.10;2.50;;;13.40;66.80;;;12.07;72.13;96281.84;4919085;29;20023;-70
2022/05/28 05:27:10;;;;;;;6.75;2.15;;;13.50;66.70;;;12.10;72.25;96289.38;4915586;29;20403;-69
2022/05/28 05:29:37;;;;;;;8.90;2.22;;;13.60;66.60;;;12.10;72.43;96290.19;4939584;29;20035;-70
2022/05/28 05:32:03;;;;;;;8.63;2.58;;;13.40;66.80;;;12.14;72.01;96286.16;4931632;29;20039;-69
2022/05/28 05:34:29;;;;;;;9.20;2.75;;;13.50;66.60;;;12.20;72.19;96285.34;4935901;28;20732;-70
2022/05/28 05:36:55;;;;;;;7.45;2.03;;;13.70;66.60;;;12.24;71.60;96286.63;4932316;28;20122;-69
2022/05/28 05:39:21;;;;;;;8.05;1.92;;;13.80;66.10;;;12.34;71.17;96285.44;4918794;29;20035;-70
2022/05/28 05:41:46;;;;;;;10.25;2.55;;;13.90;65.70;;;12.39;70.75;96290.94;4950481;28;20069;-70
2022/05/28 05:44:13;;;;;;;6.60;2.25;;;14.00;64.40;;;12.42;70.31;96293.19;4966597;28;20035;-69
2022/05/28 05:46:40;;;;;;;4.82;2.08;;;13.90;64.00;;;12.46;70.50;96299.72;4947453;28;20164;-69
2022/05/28 05:49:06;;;;;;;6.68;2.05;;;14.10;64.70;;;12.50;70.43;96295.69;4949014;28;20043;-70
2022/05/28 05:51:32;;;;;;;6.85;2.17;;;14.10;64.40;;;12.54;70.37;96297.72;4919143;29;20027;-69
2022/05/28 05:53:57;;;;;;;6.72;2.22;;;14.10;64.30;;;12.60;70.54;96298.75;4950319;29;20094;-70
2022/05/28 05:56:23;;;;;;;9.48;1.95;;;14.20;64.00;;;12.69;69.96;96304.69;4950646;29;20039;-70
2022/05/28 05:58:49;;;;;;;6.18;2.15;;;14.30;63.70;;;12.76;69.88;96305.53;4929720;28;20063;-70
2022/05/28 06:01:14;;;;;;;6.93;2.10;;;14.30;63.60;;;12.84;70.02;96303.53;4946929;28;20106;-70
2022/05/28 06:03:44;;;;;;;7.78;2.25;;;14.40;63.10;;;12.85;69.55;96297.22;4932825;29;20043;-69
2022/05/28 06:06:13;;;;;;;5.80;2.30;;;14.30;63.20;;;12.88;69.49;96306.56;4930897;28;20623;-71
2022/05/28 06:08:38;;;;;;;9.52;2.58;;;14.40;63.30;;;12.93;69.61;96300.72;4934482;29;20067;-71
2022/05/28 06:11:04;;;;;;;7.50;2.40;;;14.60;62.90;;;12.98;69.11;96299.09;4918026;28;20098;-70
2022/05/28 06:13:30;;;;;;;5.45;2.15;;;14.50;62.30;;;13.04;68.95;96298.31;4917914;29;20047;-70
2022/05/28 06:15:55;;;;;;;5.78;2.10;;;14.70;62.30;;;13.14;68.75;96295.31;4939091;29;20058;-70
2022/05/28 06:18:21;;;;;;;7.20;2.30;;;14.80;61.90;;;13.16;68.10;96290.63;4950200;29;20066;-70
2022/05/28 06:20:49;;;;;;;10.48;2.38;;;14.60;61.80;;;13.17;67.16;96292.25;4931214;29;20067;-69
2022/05/28 06:23:18;;;;;;;7.47;2.38;;;14.60;60.90;;;13.20;67.17;96286.59;4947663;29;20094;-68
2022/05/28 06:25:43;;;;;;;8.85;2.47;;;14.80;61.00;;;13.25;66.86;96294.72;4933119;29;20513;-70
2022/05/28 06:28:09;;;;;;;10.35;2.70;;;14.80;60.40;;;13.34;67.66;96293.50;4933781;29;20031;-70
2022/05/28 06:30:35;;;;;;;7.63;2.28;;;15.10;60.40;;;13.46;66.78;96294.56;4911612;29;20071;-71
2022/05/28 06:33:01;;;;;;;6.80;2.22;;;15.40;59.80;;;13.59;66.79;96291.13;4938209;28;20039;-69
2022/05/28 06:35:26;;;;;;;10.32;2.35;;;15.40;58.30;;;13.68;65.67;96283.78;4918478;29;20023;-69
2022/05/28 06:37:52;;;;;;;8.45;2.55;;;15.40;57.40;;;13.66;64.69;96286.66;4931414;29;20495;-69
2022/05/28 06:40:18;;;;;;;8.95;2.30;;;15.30;57.70;;;13.73;65.11;96282.16;4930096;29;20069;-69
2022/05/28 06:42:46;;;;;;;7.70;1.98;;;15.60;57.10;;;13.85;64.27;96279.72;4932431;29;20031;-68
2022/05/28 06:45:14;;;;;;;7.43;2.25;;;16.10;55.20;;;14.01;64.77;96274.00;4931634;29;20038;-75
2022/05/28 06:47:42;;;;;;;7.07;1.98;;;16.10;55.90;;;14.25;64.83;96280.44;4936540;29;20032;-72
2022/05/28 06:52:53;;;;;;;7.20;2.10;;;16.70;54.10;;;14.61;64.16;96274.69;4949329;28;20095;-71
2022/05/28 06:55:19;;;;;;;6.00;2.40;;;16.60;54.20;;;14.73;63.11;96287.28;4932171;29;20162;-72
2022/05/28 06:57:44;;;;;;;9.70;2.17;;;17.10;53.30;;;14.88;63.52;96279.88;4947798;28;20043;-72
2022/05/28 07:00:11;;;;;;;9.95;2.50;;;17.30;53.10;;;15.08;62.26;96277.13;4947801;28;20130;-75
2022/05/28 07:02:36;;;;;;;10.07;2.53;;;17.80;51.30;;;15.37;61.19;96276.50;4903914;29;20133;-75
2022/05/28 07:05:02;;;;;;;10.60;2.50;;;18.10;50.30;;;15.57;59.86;96279.03;4951059;28;20063;-74
2022/05/28 07:07:28;;;;;;;8.23;1.77;;;18.10;48.80;;;15.75;59.87;96271.16;4949475;28;20031;-71
2022/05/28 07:09:54;;;;;;;7.40;1.95;;;18.10;47.90;;;15.88;59.04;96265.75;4916013;29;20093;-73
2022/05/28 07:12:19;;;;;;;6.40;2.30;;;18.30;48.10;;;15.96;57.27;96266.50;4950943;28;20055;-71
2022/05/28 07:14:45;;;;;;;6.15;1.50;;;18.10;46.10;;;16.08;56.11;96275.38;4934171;28;20031;-71
2022/05/28 07:17:11;;;;;;;8.10;2.15;;;18.50;45.90;;;16.28;56.03;96267.19;4917742;28;20125;-71
2022/05/28 07:19:36;;;;;;;7.65;1.90;;;19.00;44.70;;;16.44;54.82;96264.78;4934155;28;20471;-74
2022/05/28 07:22:02;;;;;;;9.23;1.95;;;18.70;44.10;;;16.61;53.64;96269.50;4934476;29;20467;-73
2022/05/28 07:24:28;;;;;;;10.30;2.20;;;18.90;43.80;;;16.73;53.13;96273.03;4947126;28;20057;-71
2022/05/28 07:26:54;;;;;;;6.13;1.98;;;19.10;43.00;;;16.91;52.72;96274.88;4945612;28;20054;-68
2022/05/28 07:29:20;;;;;;;5.88;1.80;;;19.60;42.30;;;17.14;52.46;96270.47;4932450;29;20050;-69
2022/05/28 07:31:45;;;;;;;7.13;2.15;;;19.90;41.50;;;17.41;51.96;96262.09;4928981;29;20032;-69
2022/05/28 07:34:12;;;;;;;7.70;1.88;;;20.10;40.20;;;17.67;51.11;96268.88;4916912;28;20051;-68
2022/05/28 07:36:38;;;;;;;7.47;1.85;;;20.60;41.40;;;17.98;50.54;96259.78;4949458;28;20043;-71
2022/05/28 07:39:03;;;;;;;8.85;1.83;;;20.90;39.60;;;18.33;50.33;96262.41;4945139;28;20074;-68
2022/05/28 07:41:29;;;;;;;9.00;2.08;;;21.30;39.20;;;18.69;48.86;96256.03;4916802;29;20039;-70
2022/05/28 07:43:56;;;;;;;9.07;1.92;;;21.80;37.80;;;19.08;48.08;96250.91;4951771;28;20058;-70
2022/05/28 07:46:30;;;;;;;6.22;1.38;;;22.20;37.40;;;19.39;44.13;96245.06;4938918;28;20039;-69
2022/05/28 07:48:57;;;;;;;8.75;1.83;;;22.10;35.80;;;19.50;45.60;96241.53;4934057;28;20039;-70
2022/05/28 07:51:23;;;;;;;9.25;1.70;;;21.80;36.00;;;19.63;45.24;96244.94;4914799;28;20036;-68
2022/05/28 07:53:49;;;;;;;5.35;1.35;;;22.10;35.50;;;19.81;43.74;96245.53;4934161;29;20159;-69
2022/05/28 07:56:14;;;;;;;7.75;1.58;;;22.30;33.90;;;19.98;43.68;96242.84;4933334;29;20458;-69
2022/05/28 07:58:40;;;;;;;6.65;1.73;;;22.50;33.80;;;20.10;43.01;96246.22;4917640;29;20114;-70
2022/05/28 08:01:07;;;;;;;7.05;1.95;;;22.80;33.70;;;20.23;42.72;96238.91;4965818;28;20126;-69
2022/05/28 08:03:33;;;;;;;7.22;1.42;;;22.90;33.80;;;20.41;42.98;96246.69;4917708;29;20044;-70
2022/05/28 08:05:58;;;;;;;9.02;1.95;;;23.20;34.50;;;20.70;42.95;96250.78;4947704;28;20035;-69
2022/05/28 08:08:26;;;;;;;4.85;1.50;;;23.70;34.00;;;20.91;42.00;96240.34;4916939;29;20078;-70
2022/05/28 08:10:52;;;;;;;6.20;1.88;;;23.70;34.00;;;20.88;41.84;96243.53;4917906;28;20032;-69
2022/05/28 08:13:21;;;;;;;6.95;1.65;;;23.50;32.10;;;20.89;41.59;96242.47;4917833;29;20047;-70
2022/05/28 08:15:47;;;;;;;5.88;1.75;;;23.80;33.50;;;20.98;41.59;96247.09;4934707;28;20098;-70
2022/05/28 08:18:15;;;;;;;6.47;1.60;;;23.70;33.20;;;21.03;40.97;96238.31;4933428;29;20035;-71
2022/05/28 08:23:25;;;;;;;6.78;1.80;;;23.90;32.20;;;21.24;40.71;96244.72;4934710;29;20126;-71
2022/05/28 08:25:51;;;;;;;7.75;1.52;;;23.80;32.90;;;21.34;40.42;96247.50;4941809;29;20071;-70
2022/05/28 08:28:18;;;;;;;6.00;1.90;;;24.10;32.20;;;21.47;40.08;96244.41;4932793;29;20039;-72
2022/05/28 08:30:44;;;;;;;4.45;1.10;;;24.40;31.50;;;21.67;38.66;96249.94;4909301;29;20598;-70
2022/05/28 08:33:12;;;;;;;5.93;1.30;;;24.50;29.60;;;21.79;39.46;96247.09;4916996;28;20043;-70
2022/05/28 08:35:38;;;;;;;5.30;1.30;;;24.50;30.40;;;21.92;38.05;96251.19;4934695;28;20114;-69
2022/05/28 08:38:08;;;;;;;3.90;1.17;;;24.70;30.50;;;22.05;36.99;96240.09;4932911;29;20046;-71
2022/05/28 08:40:41;;;;;;;4.18;1.13;;;24.60;28.80;;;22.16;35.91;96240.94;4901727;29;20113;-71
2022/05/28 08:43:08;;;;;;;5.00;2.15;;;24.80;29.50;;;22.37;37.79;96245.34;4933212;28;20043;-70
2022/05/28 08:45:33;;;;;;;4.20;1.70;;;25.10;30.30;;;22.36;36.35;96242.94;4930594;29;20114;-71
2022/05/28 08:47:59;;;;;;;3.75;0.80;;;24.90;28.30;;;22.36;36.00;96251.78;4931195;29;20070;-71
2022/05/28 08:50:25;;;;;;;3.58;1.40;;;24.90;29.20;;;22.52;36.23;96255.38;4932269;29;20052;-70
2022/05/28 08:53:16;;;;;;;4.20;1.10;;;25.20;28.40;;;22.62;34.40;96250.03;4916596;29;20035;-71
2022/05/28 08:55:45;;;;;;;2.17;0.77;;;25.20;29.10;;;22.80;35.40;96249.59;4922414;29;20438;-73
2022/05/28 08:58:16;;;;;;;3.70;0.85;;;25.50;28.40;;;22.97;34.97;96246.72;4932803;29;20047;-71
2022/05/28 09:00:57;;;;;;;4.55;1.00;;;25.60;29.30;;;22.98;32.56;96245.66;4931065;29;20462;-71
2022/05/28 09:03:30;;;;;;;4.65;1.02;;;25.10;28.10;;;22.95;32.78;96246.19;4933600;29;20039;-70
2022/05/28 09:06:10;;;;;;;5.53;1.00;;;25.50;27.70;;;22.97;33.31;96249.41;4932344;29;20039;-71
2022/05/28 09:08:45;;;;;;;3.00;0.80;;;25.60;27.40;;;22.90;32.88;96235.44;4902708;29;20071;-71
2022/05/28 09:11:45;;;;;;;3.42;1.10;;;24.60;28.90;;;22.52;33.32;96250.81;4932762;28;20039;-71
2022/05/28 09:14:17;;;;;;;3.45;0.80;;;23.90;29.30;;;22.11;33.83;96246.28;4931723;29;20138;-72
2022/05/28 09:16:43;;;;;;;2.17;0.90;;;24.00;30.30;;;22.09;35.15;96245.72;4945053;28;20046;-71
2022/05/28 09:19:31;;;;;;;2.20;0.80;;;24.40;29.00;;;22.07;32.97;96242.50;4931174;28;20047;-70
2022/05/28 09:21:57;;;;;;;5.55;1.10;;;24.40;28.90;;;22.12;34.42;96250.56;4942392;28;20880;-71
2022/05/28 09:24:28;;;;;;;4.10;1.15;;;24.60;27.90;;;22.23;32.69;96246.91;4932670;29;20130;-70
2022/05/28 09:27:18;;;;;;;4.05;1.17;;;25.10;27.30;;;22.40;32.92;96233.31;4945757;28;20126;-72
2022/05/28 09:30:25;;;;;;;1.80;0.83;;;25.50;28.10;;;22.60;31.90;96231.53;4942277;28;20047;-71
2022/05/28 09:33:18;;;;;;;3.22;1.00;;;25.40;27.10;;;22.77;32.02;96239.38;4924456;29;20024;-69
2022/05/28 09:36:03;;;;;;;1.58;0.60;;;25.80;27.10;;;22.98;32.49;96232.25;4948736;28;20043;-70
2022/05/28 09:39:11;;;;;;;4.13;1.08;;;26.10;27.50;;;23.01;32.95;96228.22;4945505;28;20035;-70
2022/05/28 09:41:49;;;;;;;4.57;1.02;;;25.50;28.80;;;23.01;33.37;96231.72;4944141;29;20040;-70
2022/05/28 09:44:20;;;;;;;4.00;0.98;;;26.10;28.00;;;23.15;33.15;96232.84;4945300;29;20415;-71
2022/05/28 09:46:46;;;;;;;4.05;0.98;;;26.30;26.90;;;23.32;32.85;96224.56;4948308;28;20035;-69
2022/05/28 09:49:23;;;;;;;2.75;0.82;;;26.50;25.80;;;23.50;32.62;96224.00;4939573;28;20062;-72
2022/05/28 09:51:56;;;;;;;4.40;1.00;;;27.10;27.40;;;23.48;32.05;96215.41;4914881;29;20570;-71
2022/05/28 09:54:30;;;;;;;4.45;1.00;;;26.20;27.60;;;23.30;32.41;96217.81;4942508;29;20462;-73
2022/05/28 09:57:11;;;;;;;2.03;0.70;;;25.70;27.30;;;23.40;32.26;96226.69;4944259;28;20043;-74
2022/05/28 10:00:03;;;;;;;3.30;0.88;;;26.50;27.30;;;23.75;32.55;96225.13;4927612;28;20126;-72
2022/05/28 10:02:43;;;;;;;3.28;0.95;;;27.70;26.60;;;23.88;31.46;96224.59;4932060;29;20043;-73
2022/05/28 10:05:20;;;;;;;3.30;0.95;;;26.80;24.90;;;23.69;31.78;96218.16;4915686;28;20047;-73
2022/05/28 10:07:51;;;;;;;2.55;0.80;;;26.60;26.90;;;23.84;32.03;96212.78;4958485;28;20446;-71
2022/05/28 10:10:26;;;;;;;7.85;0.85;;;27.20;26.60;;;24.04;31.46;96211.94;4932042;29;20078;-71
2022/05/28 10:12:52;;;;;;;3.65;0.93;;;26.70;26.40;;;23.86;32.61;96209.81;4947943;28;20130;-71
2022/05/28 10:15:28;;;;;;;4.10;1.15;;;26.10;27.20;;;23.68;31.51;96216.53;4916235;29;20078;-72
2022/05/28 10:18:02;;;;;;;4.78;1.08;;;26.10;27.40;;;23.60;31.73;96215.19;4929387;29;20051;-71
2022/05/28 10:20:28;;;;;;;3.88;1.40;;;26.30;26.80;;;23.87;32.42;96211.44;4917191;29;20319;-70
2022/05/28 10:22:55;;;;;;;3.65;0.90;;;27.50;25.50;;;24.32;32.67;96208.69;4910875;28;20179;-72
2022/05/28 10:25:37;;;;;;;3.83;0.70;;;28.10;25.30;;;24.94;29.46;96210.06;4914942;29;20035;-72
2022/05/28 10:28:03;;;;;;;2.45;1.00;;;28.90;23.20;;;25.44;31.07;96207.34;4946724;28;20107;-73
2022/05/28 10:30:37;;;;;;;3.35;0.73;;;29.30;23.20;;;25.84;28.60;96203.56;4945956;28;20027;-73
2022/05/28 10:33:14;;;;;;;1.77;0.68;;;29.60;22.60;;;26.29;29.04;96201.50;4930609;28;20106;-72
2022/05/28 10:35:40;;;;;;;2.45;0.60;;;30.50;22.70;;;26.81;30.15;96187.13;4921099;29;20067;-71